Time;durP1;ratioP1;P1;durP2;ratioP2;P2;SDS_P1;SDS_P2;PMS_P1;PMS_P2;Temp;Humidity;BMP_temperature;BMP_pressure;BME280_temperature;BME280_humidity;BME280_pressure;Samples;Min_cycle;Max_cycle;Signal;HPM_P1;HPM_P2
2022/05/03 00:02:23;;;;;;;;;;;;;;;;;;;;;
2022/05/03 00:05:33;;;;;;;19.90;9.10;;;13.40;96.90;;;;;;5083839;28;42708;-79
2022/05/03 00:08:27;;;;;;;20.55;9.65;;;13.30;97.00;;;;;;5049151;28;20132;-79
2022/05/03 00:11:09;;;;;;;17.58;9.25;;;13.70;97.10;;;;;;5060088;28;20051;-80
2022/05/03 00:14:23;;;;;;;15.48;9.45;;;13.30;97.10;;;;;;5080161;28;20506;-80
2022/05/03 00:19:55;;;;;;;20.95;9.50;;;13.20;97.00;;;;;;5082699;28;20533;-80
2022/05/03 00:22:37;;;;;;;17.63;8.63;;;13.40;97.10;;;;;;5048629;28;20040;-80
2022/05/03 00:25:20;;;;;;;19.30;9.20;;;13.30;97.10;;;;;;5050539;28;20091;-80
2022/05/03 00:27:49;;;;;;;16.08;9.57;;;13.40;97.10;;;;;;5062841;28;20056;-80
2022/05/03 00:30:28;;;;;;;18.75;10.30;;;13.40;97.20;;;;;;5075231;28;20048;-80
2022/05/03 00:33:09;;;;;;;17.48;9.52;;;13.40;97.20;;;;;;5064171;28;20543;-79
2022/05/03 00:35:54;;;;;;;17.75;9.63;;;13.30;97.40;;;;;;5049822;28;20090;-81
2022/05/03 00:38:46;;;;;;;17.00;9.15;;;13.30;97.30;;;;;;5078798;28;20040;-80
2022/05/03 00:41:18;;;;;;;;;;;13.30;97.20;;;;;;5065190;28;20065;-79
2022/05/03 00:44:00;;;;;;;14.75;8.25;;;13.00;97.20;;;;;;5080527;28;19977;-80
2022/05/03 00:46:39;;;;;;;19.52;8.90;;;13.60;97.30;;;;;;5061415;28;20060;-79
2022/05/03 00:49:37;;;;;;;17.30;9.38;;;13.30;97.30;;;;;;5049033;28;20068;-79
2022/05/03 00:52:35;;;;;;;17.10;9.38;;;13.20;97.30;;;;;;5030617;28;20497;-80
2022/05/03 00:55:26;;;;;;;16.45;8.98;;;13.00;97.30;;;;;;5065624;28;20127;-80
2022/05/03 00:58:23;;;;;;;12.48;7.82;;;13.30;97.40;;;;;;5080436;28;20122;-80
2022/05/03 01:01:33;;;;;;;19.05;9.88;;;13.20;97.30;;;;;;5061930;28;20048;-80
2022/05/03 01:04:25;;;;;;;18.58;9.88;;;13.30;97.40;;;;;;5081141;28;20040;-81
2022/05/03 01:07:45;;;;;;;19.85;10.20;;;13.60;97.50;;;;;;5063273;28;20040;-79
2022/05/03 01:10:27;;;;;;;20.48;9.13;;;13.60;97.50;;;;;;5077334;28;20048;-80
2022/05/03 01:13:17;;;;;;;15.90;8.60;;;13.30;97.40;;;;;;5062954;28;20036;-80
2022/05/03 01:16:20;;;;;;;;;;;;;;;;;;;;;
2022/05/03 01:19:36;;;;;;;17.67;9.18;;;12.80;97.40;;;;;;5081428;28;39527;-80
2022/05/03 01:22:42;;;;;;;16.55;8.52;;;13.00;97.50;;;;;;5079295;28;20059;-80
2022/05/03 01:25:39;;;;;;;16.80;8.80;;;13.30;97.50;;;;;;5066462;28;20044;-79
2022/05/03 01:28:47;;;;;;;16.95;9.23;;;13.20;97.60;;;;;;5080704;28;20541;-80
2022/05/03 01:34:12;;;;;;;17.27;8.50;;;13.20;97.60;;;;;;5086417;28;20624;-80
2022/05/03 01:36:58;;;;;;;16.15;8.30;;;13.20;97.70;;;;;;5052648;28;20079;-80
2022/05/03 01:39:40;;;;;;;15.48;9.02;;;13.20;97.70;;;;;;5082301;28;20793;-80
2022/05/03 01:42:37;;;;;;;14.07;8.13;;;13.30;97.70;;;;;;5085148;28;20044;-80
2022/05/03 01:45:25;;;;;;;13.80;7.25;;;13.20;97.70;;;;;;5084306;28;20053;-80
2022/05/03 01:51:48;;;;;;;13.25;7.43;;;12.90;97.70;;;;;;5023757;28;20617;-81
2022/05/03 01:55:08;;;;;;;;;;;;;;;;;;;;;
2022/05/03 01:58:20;;;;;;;16.65;8.80;;;13.90;98.00;;;;;;5021836;28;42717;-80
2022/05/03 02:01:04;;;;;;;14.73;7.40;;;13.20;97.80;;;;;;5020922;28;20108;-80
2022/05/03 02:04:01;;;;;;;;;;;;;;;;;;;;;
2022/05/03 02:07:08;;;;;;;14.18;7.40;;;13.20;97.80;;;;;;5081490;28;40296;-80
2022/05/03 02:10:40;;;;;;;16.20;6.80;;;13.20;97.80;;;;;;5005006;28;20041;-80
2022/05/03 02:16:49;;;;;;;12.95;7.60;;;13.10;97.70;;;;;;4993252;28;20054;-79
2022/05/03 02:19:52;;;;;;;12.02;7.93;;;13.20;97.80;;;;;;5065384;28;20049;-80
2022/05/03 02:23:10;;;;;;;13.38;8.07;;;13.10;97.80;;;;;;5083166;28;20518;-79
2022/05/03 02:29:56;;;;;;;13.35;7.78;;;13.10;97.70;;;;;;5038160;28;20541;-79
2022/05/03 02:40:12;;;;;;;13.75;7.35;;;13.10;97.90;;;;;;4973737;28;20066;-80
2022/05/03 02:46:33;;;;;;;14.13;7.40;;;13.10;97.90;;;;;;4999722;28;20049;-79
2022/05/03 02:49:28;;;;;;;;;;;;;;;;;;;;;
2022/05/03 02:52:55;;;;;;;13.70;6.55;;;13.10;97.90;;;;;;4995575;28;44118;-79
2022/05/03 03:03:25;;;;;;;;;;;;;;;;;;;;;
2022/05/03 03:06:57;;;;;;;14.73;8.15;;;13.10;97.80;;;;;;4943580;28;44125;-79
2022/05/03 03:16:44;;;;;;;17.55;7.53;;;13.40;97.90;;;;;;5077688;28;20056;-80
2022/05/03 03:23:23;;;;;;;15.10;7.13;;;13.20;97.80;;;;;;5014657;28;20527;-80
2022/05/03 03:30:11;;;;;;;;;;;;;;;;;;;;;
2022/05/03 03:33:23;;;;;;;14.95;7.88;;;13.30;97.80;;;;;;5008897;28;44260;-79
2022/05/03 03:36:32;;;;;;;;;;;;;;;;;;;;;
2022/05/03 03:39:29;;;;;;;;;;;;;;;;;;;;;
2022/05/03 03:42:53;;;;;;;15.45;7.13;;;13.20;97.80;;;;;;5007540;28;45069;-79
2022/05/03 03:45:44;;;;;;;19.83;7.43;;;13.00;97.70;;;;;;5039770;28;20041;-79
2022/05/03 03:48:39;;;;;;;16.60;7.87;;;12.90;97.70;;;;;;5027552;28;20080;-80
2022/05/03 03:58:08;;;;;;;14.15;7.63;;;13.00;97.80;;;;;;5024522;28;20050;-79
2022/05/03 04:01:32;;;;;;;14.77;7.80;;;12.90;97.70;;;;;;5007409;28;20623;-79
2022/05/03 04:11:01;;;;;;;11.95;7.60;;;12.70;97.70;;;;;;5009367;28;20058;-79
2022/05/03 04:13:55;;;;;;;12.50;6.55;;;12.90;97.80;;;;;;5008829;28;20050;-79
2022/05/03 04:16:55;;;;;;;15.88;8.48;;;13.10;97.80;;;;;;5013539;28;20073;-79
2022/05/03 04:19:44;;;;;;;14.75;8.43;;;12.80;97.80;;;;;;4996324;28;20785;-79
2022/05/03 04:23:14;;;;;;;;;;;;;;;;;;;;;
2022/05/03 04:26:12;;;;;;;14.75;8.18;;;12.80;97.80;;;;;;4914109;28;40287;-79
2022/05/03 04:29:24;;;;;;;14.18;7.40;;;12.70;97.80;;;;;;4965468;28;20088;-79
2022/05/03 04:32:32;;;;;;;;;;;;;;;;;;;;;
2022/05/03 04:35:38;;;;;;;12.80;7.40;;;12.90;97.90;;;;;;5058227;28;42260;-79
2022/05/03 04:41:48;;;;;;;13.40;7.55;;;13.10;97.90;;;;;;5015392;28;20072;-80
2022/05/03 04:44:17;;;;;;;10.38;6.47;;;12.80;97.90;;;;;;5037961;28;20061;-80
2022/05/03 04:46:46;;;;;;;15.82;8.20;;;12.80;98.00;;;;;;5041790;28;20123;-79
2022/05/03 04:49:26;;;;;;;17.15;7.45;;;12.80;98.00;;;;;;5028268;28;20580;-80
2022/05/03 04:51:55;;;;;;;14.80;8.55;;;13.00;97.90;;;;;;5042969;28;20045;-79
2022/05/03 04:54:23;;;;;;;14.50;7.15;;;12.80;97.90;;;;;;5058255;28;20043;-80
2022/05/03 04:57:02;;;;;;;13.52;7.47;;;12.80;97.90;;;;;;5053784;28;20049;-79
2022/05/03 04:59:34;;;;;;;16.15;7.75;;;12.90;98.00;;;;;;5061150;28;20079;-79
2022/05/03 05:02:14;;;;;;;17.30;8.57;;;12.50;97.80;;;;;;5072800;28;20049;-79
2022/05/03 05:05:14;;;;;;;16.92;8.30;;;12.80;97.90;;;;;;5046821;28;20057;-79
2022/05/03 05:07:55;;;;;;;14.00;6.93;;;12.80;98.00;;;;;;5057498;28;20044;-80
2022/05/03 05:10:27;;;;;;;16.30;8.10;;;12.90;98.00;;;;;;5039822;28;21230;-79
2022/05/03 05:13:01;;;;;;;15.52;7.63;;;12.80;97.90;;;;;;5042618;28;20521;-79
2022/05/03 05:15:34;;;;;;;13.45;7.55;;;12.80;98.00;;;;;;5027011;28;20049;-79
2022/05/03 05:18:03;;;;;;;18.90;8.73;;;12.70;98.00;;;;;;5024197;28;20208;-79
2022/05/03 05:20:29;;;;;;;14.70;8.38;;;12.70;98.00;;;;;;5029906;28;20758;-79
2022/05/03 05:23:00;;;;;;;17.77;8.88;;;12.80;98.20;;;;;;5023927;28;20566;-78
2022/05/03 05:25:33;;;;;;;16.95;7.25;;;12.70;98.10;;;;;;5022473;28;20091;-79
2022/05/03 05:28:02;;;;;;;14.80;8.07;;;13.30;98.20;;;;;;5023582;28;20092;-80
2022/05/03 05:30:38;;;;;;;18.00;9.75;;;12.80;98.10;;;;;;5027200;28;20091;-80
2022/05/03 05:33:29;;;;;;;15.90;8.90;;;12.80;98.20;;;;;;5041151;28;20038;-80
2022/05/03 05:36:04;;;;;;;15.77;8.68;;;12.80;98.20;;;;;;5023431;28;20561;-80
2022/05/03 05:38:38;;;;;;;21.30;10.10;;;12.80;98.20;;;;;;5024660;28;20192;-81
2022/05/03 05:41:20;;;;;;;17.90;8.68;;;13.90;98.60;;;;;;5047438;28;20522;-79
2022/05/03 05:46:41;;;;;;;18.35;8.70;;;12.60;98.10;;;;;;5055303;28;20114;-78
2022/05/03 05:49:21;;;;;;;16.52;9.18;;;12.90;98.20;;;;;;5072676;28;20040;-81
2022/05/03 05:54:39;;;;;;;14.80;7.95;;;12.80;98.10;;;;;;5060924;28;20526;-78
2022/05/03 05:57:10;;;;;;;13.68;8.10;;;12.90;98.10;;;;;;5057453;28;20098;-79
2022/05/03 05:59:43;;;;;;;20.70;9.65;;;13.30;98.20;;;;;;5062285;28;20048;-79
2022/05/03 06:02:30;;;;;;;18.98;8.90;;;12.60;98.20;;;;;;5063990;28;20199;-80
2022/05/03 06:05:04;;;;;;;18.92;9.02;;;12.90;98.10;;;;;;5064859;28;20052;-84
2022/05/03 06:07:44;;;;;;;14.48;7.38;;;13.00;98.20;;;;;;5045886;28;20049;-78
2022/05/03 06:10:24;;;;;;;25.52;8.65;;;13.00;98.20;;;;;;5046961;28;20209;-78
2022/05/03 06:13:07;;;;;;;15.68;8.30;;;12.90;98.20;;;;;;5077737;28;20148;-78
2022/05/03 06:15:39;;;;;;;17.00;7.53;;;12.80;98.00;;;;;;5072659;28;20057;-80
2022/05/03 06:18:12;;;;;;;;;;;13.20;98.20;;;;;;5066911;28;20056;-79
2022/05/03 06:20:49;;;;;;;14.55;7.85;;;13.00;98.20;;;;;;5061044;28;19924;-81
2022/05/03 06:23:47;;;;;;;13.30;7.00;;;13.20;98.10;;;;;;5081720;28;20259;-81
2022/05/03 06:29:32;;;;;;;17.52;8.52;;;13.00;98.10;;;;;;5061791;28;20087;-81
2022/05/03 06:38:48;;;;;;;16.73;7.43;;;13.20;98.10;;;;;;5022785;28;20069;-80
2022/05/03 06:41:28;;;;;;;16.98;8.98;;;13.30;98.10;;;;;;5008220;28;20104;-81
2022/05/03 06:44:28;;;;;;;20.33;8.75;;;13.30;98.00;;;;;;4992828;28;20057;-81
2022/05/03 06:47:03;;;;;;;13.80;7.47;;;13.40;98.10;;;;;;5017327;28;20057;-79
2022/05/03 06:49:51;;;;;;;;;;;;;;;;;;;;;
2022/05/03 06:52:26;;;;;;;18.48;9.27;;;13.40;98.00;;;;;;5019592;28;46079;-80
2022/05/03 06:55:14;;;;;;;15.68;8.73;;;13.60;98.10;;;;;;5004663;28;20045;-81
2022/05/03 06:58:01;;;;;;;13.45;7.82;;;13.60;97.80;;;;;;5058720;28;20530;-81
2022/05/03 07:00:31;;;;;;;14.60;7.60;;;13.60;97.80;;;;;;5059140;28;20041;-81
2022/05/03 07:03:03;;;;;;;17.52;8.07;;;13.70;97.70;;;;;;5064894;28;20045;-81
2022/05/03 07:05:37;;;;;;;19.95;9.30;;;13.80;97.80;;;;;;5062046;28;20057;-81
2022/05/03 07:08:15;;;;;;;22.35;9.48;;;13.90;97.50;;;;;;5063828;28;20047;-81
2022/05/03 07:10:56;;;;;;;17.13;8.40;;;13.80;97.40;;;;;;5064721;28;20124;-84
2022/05/03 07:13:40;;;;;;;18.17;8.68;;;13.80;97.40;;;;;;5061620;28;20153;-81
2022/05/03 07:16:30;;;;;;;13.35;8.20;;;13.70;97.40;;;;;;5047962;28;20228;-81
2022/05/03 07:24:46;;;;;;;18.73;8.63;;;13.60;97.40;;;;;;5063716;28;20053;-81
2022/05/03 07:27:19;;;;;;;18.60;8.80;;;13.50;97.40;;;;;;5077577;28;20053;-80
2022/05/03 07:29:45;;;;;;;17.10;9.27;;;13.50;97.50;;;;;;5061875;28;20080;-81
2022/05/03 07:32:34;;;;;;;;;;;;;;;;;;;;;
2022/05/03 07:35:06;;;;;;;17.35;8.10;;;13.50;97.50;;;;;;5080479;28;45315;-81
2022/05/03 07:37:32;;;;;;;19.60;8.57;;;13.50;97.60;;;;;;5082234;28;20046;-81
2022/05/03 07:40:12;;;;;;;16.17;7.47;;;13.50;97.60;;;;;;5065330;28;20139;-81
2022/05/03 07:43:03;;;;;;;17.75;9.52;;;13.50;97.70;;;;;;5078512;28;20060;-81
2022/05/03 07:45:49;;;;;;;13.00;5.72;;;13.50;97.70;;;;;;5066840;28;20091;-81
2022/05/03 07:48:23;;;;;;;15.30;8.57;;;13.50;97.80;;;;;;5064985;28;20043;-81
2022/05/03 07:53:44;;;;;;;15.00;6.68;;;13.50;97.90;;;;;;5082248;28;21170;-78
2022/05/03 07:56:10;;;;;;;17.58;9.35;;;13.60;98.00;;;;;;5082230;28;20115;-77
2022/05/03 07:58:44;;;;;;;18.33;7.65;;;13.60;98.00;;;;;;5045899;28;20048;-78
2022/05/03 08:01:13;;;;;;;23.08;8.75;;;13.50;98.00;;;;;;5083565;28;20049;-78
2022/05/03 08:03:40;;;;;;;17.45;8.88;;;13.50;98.10;;;;;;5065737;28;20090;-77
2022/05/03 08:06:06;;;;;;;15.65;8.43;;;13.50;98.20;;;;;;5083086;28;20061;-79
2022/05/03 08:08:35;;;;;;;17.15;8.05;;;13.60;98.30;;;;;;5065106;28;20072;-78
2022/05/03 08:11:03;;;;;;;17.15;8.18;;;13.60;98.30;;;;;;5082535;28;20083;-78
2022/05/03 08:13:39;;;;;;;18.88;9.70;;;13.60;98.40;;;;;;5065975;28;20048;-79
2022/05/03 08:16:39;;;;;;;26.27;9.13;;;13.60;98.50;;;;;;5100370;27;20125;-79
2022/05/03 08:19:08;;;;;;;18.30;7.60;;;13.70;98.60;;;;;;5051703;28;20476;-78
2022/05/03 08:21:39;;;;;;;16.52;7.13;;;13.80;98.70;;;;;;5082381;28;20121;-79
2022/05/03 08:24:10;;;;;;;15.15;8.07;;;14.10;98.70;;;;;;5084583;28;20572;-78
2022/05/03 08:26:48;;;;;;;18.58;7.75;;;13.80;98.80;;;;;;5051390;28;20063;-79
2022/05/03 08:29:22;;;;;;;14.02;6.75;;;13.90;98.70;;;;;;5051491;28;20044;-79
2022/05/03 08:32:25;;;;;;;11.50;6.03;;;13.20;98.60;;;;;;5080337;28;20140;-79
2022/05/03 08:35:02;;;;;;;12.30;7.30;;;14.10;98.70;;;;;;5062467;28;20052;-79
2022/05/03 08:43:16;;;;;;;14.15;7.57;;;14.10;98.40;;;;;;5065108;28;20130;-79
2022/05/03 08:45:50;;;;;;;13.73;7.97;;;14.10;98.20;;;;;;5046735;28;20044;-78
2022/05/03 08:48:37;;;;;;;13.32;6.03;;;14.20;98.20;;;;;;5078922;28;20037;-80
2022/05/03 08:51:35;;;;;;;15.98;7.13;;;14.30;98.20;;;;;;5078649;28;20510;-79
2022/05/03 08:54:15;;;;;;;15.02;6.85;;;14.40;98.10;;;;;;5064044;28;20107;-79
2022/05/03 08:59:46;;;;;;;14.48;6.88;;;14.40;97.90;;;;;;5064670;28;20072;-79
2022/05/03 09:02:15;;;;;;;13.80;6.55;;;14.50;97.90;;;;;;5064388;28;20445;-79
2022/05/03 09:04:49;;;;;;;13.27;7.45;;;15.10;97.90;;;;;;5061840;28;20063;-79
2022/05/03 09:07:36;;;;;;;11.55;6.13;;;14.60;97.70;;;;;;5062003;28;20044;-79
2022/05/03 09:10:28;;;;;;;12.18;7.50;;;14.60;97.50;;;;;;5079907;28;20048;-79
2022/05/03 09:13:13;;;;;;;14.20;5.68;;;14.60;97.40;;;;;;5050447;28;20048;-78
2022/05/03 09:15:55;;;;;;;11.15;6.68;;;14.60;97.10;;;;;;5062931;28;20472;-78
2022/05/03 09:18:39;;;;;;;13.60;6.73;;;14.70;96.70;;;;;;5065028;28;20541;-78
2022/05/03 09:24:23;;;;;;;10.00;5.07;;;14.70;96.70;;;;;;5065906;28;20044;-80
2022/05/03 09:27:31;;;;;;;11.18;5.80;;;14.80;96.20;;;;;;5063146;28;20045;-79
2022/05/03 09:30:24;;;;;;;17.77;6.82;;;14.80;96.40;;;;;;5050493;28;20051;-80
2022/05/03 09:33:03;;;;;;;9.13;4.90;;;14.90;96.10;;;;;;5048574;28;20052;-79
2022/05/03 09:39:04;;;;;;;;;;;;;;;;;;;;;
2022/05/03 09:41:57;;;;;;;14.07;6.32;;;15.10;95.50;;;;;;5062180;28;39193;-79
2022/05/03 09:44:51;;;;;;;13.57;6.47;;;15.10;95.20;;;;;;5076981;28;20103;-79
2022/05/03 09:47:22;;;;;;;10.18;6.07;;;14.70;95.00;;;;;;5061654;28;20485;-79
2022/05/03 09:49:56;;;;;;;10.73;6.07;;;15.10;95.20;;;;;;5060011;28;20593;-82
2022/05/03 09:52:31;;;;;;;15.02;5.95;;;15.30;94.90;;;;;;5063857;28;20851;-79
2022/05/03 09:55:00;;;;;;;12.15;6.35;;;15.60;95.00;;;;;;5066559;28;20044;-79
2022/05/03 09:57:37;;;;;;;16.08;6.43;;;15.50;94.70;;;;;;5068181;28;20096;-79
2022/05/03 10:00:20;;;;;;;10.48;5.68;;;15.20;94.50;;;;;;5048843;28;20140;-79
2022/05/03 10:02:54;;;;;;;13.00;6.07;;;15.40;94.40;;;;;;5066279;28;20044;-79
2022/05/03 10:05:25;;;;;;;11.18;5.95;;;15.30;94.00;;;;;;5065772;28;20053;-79
2022/05/03 10:08:03;;;;;;;13.65;6.72;;;15.70;94.10;;;;;;5068656;28;20508;-78
2022/05/03 10:10:32;;;;;;;10.15;5.38;;;15.60;94.00;;;;;;5068231;28;20052;-78
2022/05/03 10:13:04;;;;;;;10.43;5.00;;;15.50;93.80;;;;;;5072647;28;20045;-78
2022/05/03 10:21:50;;;;;;;13.68;5.45;;;15.50;93.60;;;;;;5069964;28;20056;-78
2022/05/03 10:24:44;;;;;;;11.82;5.47;;;15.90;93.60;;;;;;5068486;28;20037;-79
2022/05/03 10:27:16;;;;;;;9.23;5.32;;;15.80;93.50;;;;;;5065677;28;20815;-79
2022/05/03 10:30:43;;;;;;;10.43;5.50;;;15.70;93.00;;;;;;5069158;28;20045;-78
2022/05/03 10:33:53;;;;;;;14.13;5.57;;;16.00;93.00;;;;;;4966413;28;20139;-78
2022/05/03 10:36:38;;;;;;;11.77;6.35;;;16.20;93.00;;;;;;4952415;28;20057;-79
2022/05/03 10:39:36;;;;;;;10.20;5.85;;;16.40;93.10;;;;;;5037917;28;20494;-79
2022/05/03 10:42:14;;;;;;;9.05;4.90;;;16.30;93.00;;;;;;5044657;28;20045;-78
2022/05/03 10:44:55;;;;;;;12.60;5.40;;;16.40;92.70;;;;;;5043447;28;20078;-78
2022/05/03 10:47:47;;;;;;;10.93;6.03;;;16.40;92.50;;;;;;5064055;28;20038;-80
2022/05/03 10:50:26;;;;;;;7.47;5.10;;;16.50;92.50;;;;;;5037161;28;20042;-79
2022/05/03 10:53:09;;;;;;;7.18;4.40;;;16.60;92.30;;;;;;5045346;28;20064;-79
2022/05/03 10:56:12;;;;;;;9.68;5.45;;;16.80;92.20;;;;;;5045717;28;20080;-78
2022/05/03 10:59:14;;;;;;;10.65;5.05;;;17.10;91.90;;;;;;5046371;28;20557;-78
2022/05/03 11:02:06;;;;;;;8.25;5.32;;;17.30;91.50;;;;;;5043700;28;20046;-79
2022/05/03 11:04:35;;;;;;;7.18;4.65;;;17.50;91.60;;;;;;5034758;28;20116;-79
2022/05/03 11:07:05;;;;;;;9.25;6.25;;;17.40;91.30;;;;;;5028502;28;20164;-79
2022/05/03 11:09:34;;;;;;;7.70;5.15;;;17.30;91.20;;;;;;5028632;28;20045;-79
2022/05/03 11:12:56;;;;;;;;;;;;;;;;;;;;;
2022/05/03 11:15:34;;;;;;;8.17;5.10;;;17.10;91.10;;;;;;5044727;28;43496;-78
2022/05/03 11:18:11;;;;;;;8.30;4.78;;;17.10;90.50;;;;;;5045748;28;20610;-77
2022/05/03 11:20:57;;;;;;;8.55;4.82;;;17.10;90.60;;;;;;5041407;28;20053;-78
2022/05/03 11:23:46;;;;;;;7.82;5.10;;;17.10;90.10;;;;;;5029294;28;20557;-78
2022/05/03 11:26:17;;;;;;;9.80;4.68;;;16.90;90.10;;;;;;5028200;28;20052;-78
2022/05/03 11:29:33;;;;;;;7.47;4.03;;;17.60;90.00;;;;;;5028701;28;20045;-77
2022/05/03 11:32:08;;;;;;;9.43;4.15;;;17.60;90.00;;;;;;5078292;28;20482;-78
2022/05/03 11:34:48;;;;;;;9.95;5.35;;;17.80;89.70;;;;;;5047856;28;20864;-77
2022/05/03 11:37:25;;;;;;;9.93;4.82;;;17.80;88.80;;;;;;5065776;28;20048;-78
2022/05/03 11:40:12;;;;;;;12.82;5.68;;;17.70;88.70;;;;;;5064380;28;20179;-77
2022/05/03 11:42:46;;;;;;;8.98;4.65;;;17.60;88.60;;;;;;5063097;28;20045;-77
2022/05/03 11:45:20;;;;;;;7.50;4.70;;;17.50;88.70;;;;;;5065326;28;20053;-76
2022/05/03 11:47:58;;;;;;;7.10;4.32;;;17.40;89.00;;;;;;5079788;28;20040;-78
2022/05/03 11:56:34;;;;;;;8.68;4.00;;;17.40;88.80;;;;;;5066023;28;20509;-78
2022/05/03 11:59:15;;;;;;;12.30;5.40;;;17.40;88.90;;;;;;5066922;28;20130;-77
2022/05/03 12:01:47;;;;;;;8.75;5.40;;;17.30;88.90;;;;;;5078995;28;20037;-78
2022/05/03 12:04:20;;;;;;;9.18;5.45;;;17.30;88.40;;;;;;5023897;28;20058;-77
2022/05/03 12:06:51;;;;;;;8.30;4.95;;;17.20;88.30;;;;;;5004139;28;20136;-78
2022/05/03 12:09:27;;;;;;;9.02;5.72;;;17.20;88.70;;;;;;5007291;28;20081;-78
2022/05/03 12:15:07;;;;;;;;;;;;;;;;;;;;;
2022/05/03 12:18:04;;;;;;;8.75;5.00;;;17.40;88.10;;;;;;5020329;28;41966;-78
2022/05/03 12:21:21;;;;;;;7.20;4.50;;;17.30;88.20;;;;;;5023416;28;20190;-78
2022/05/03 12:24:07;;;;;;;6.72;4.40;;;17.50;87.90;;;;;;4983654;28;20064;-78
2022/05/03 12:26:41;;;;;;;7.75;3.95;;;17.50;88.10;;;;;;5006951;28;20042;-78
2022/05/03 12:29:12;;;;;;;9.73;4.53;;;17.70;87.60;;;;;;5022374;28;20057;-78
2022/05/03 12:31:51;;;;;;;11.15;5.47;;;17.60;86.90;;;;;;5023380;28;20050;-78
2022/05/03 12:35:03;;;;;;;7.55;3.85;;;17.70;87.10;;;;;;5008617;28;20585;-77
2022/05/03 12:37:52;;;;;;;8.77;4.85;;;17.80;87.30;;;;;;5064413;28;20036;-77
2022/05/03 12:41:03;;;;;;;7.68;4.90;;;17.80;86.80;;;;;;5048751;28;20049;-78
2022/05/03 12:43:34;;;;;;;8.15;4.90;;;17.80;86.00;;;;;;4982684;28;20149;-78
2022/05/03 12:49:00;;;;;;;8.00;4.22;;;17.70;86.10;;;;;;5064465;28;20052;-78
2022/05/03 12:51:28;;;;;;;11.80;4.25;;;17.70;86.20;;;;;;5060764;28;20069;-78
2022/05/03 12:54:01;;;;;;;6.78;4.53;;;17.70;85.60;;;;;;5063102;28;20045;-77
2022/05/03 12:59:23;;;;;;;8.90;4.97;;;17.70;85.70;;;;;;5065089;28;20044;-78
2022/05/03 13:01:57;;;;;;;8.70;3.92;;;17.70;85.60;;;;;;5079953;28;21668;-77
2022/05/03 13:04:26;;;;;;;6.93;3.42;;;17.90;85.70;;;;;;5061028;28;20040;-78
2022/05/03 13:07:03;;;;;;;5.95;4.03;;;18.00;85.70;;;;;;5063592;28;20045;-77
2022/05/03 13:09:40;;;;;;;6.47;3.75;;;18.00;84.70;;;;;;5081632;28;20094;-77
2022/05/03 13:12:11;;;;;;;7.60;3.70;;;17.90;85.00;;;;;;5077986;28;20049;-78
2022/05/03 13:17:31;;;;;;;6.28;3.35;;;18.30;84.70;;;;;;5063077;28;20072;-78
2022/05/03 13:19:56;;;;;;;8.30;3.70;;;18.40;84.50;;;;;;5063867;28;20112;-78
2022/05/03 13:22:25;;;;;;;8.85;3.63;;;18.50;84.60;;;;;;5062919;28;20045;-78
2022/05/03 13:24:58;;;;;;;7.57;4.20;;;18.50;84.50;;;;;;5065313;28;21183;-78
2022/05/03 13:27:27;;;;;;;7.57;4.20;;;18.70;84.00;;;;;;5053184;28;20045;-78
2022/05/03 13:29:56;;;;;;;5.68;3.17;;;18.70;83.30;;;;;;5068250;28;20116;-77
2022/05/03 13:32:30;;;;;;;5.03;3.40;;;18.70;83.60;;;;;;5084302;28;20118;-78
2022/05/03 13:34:57;;;;;;;7.22;3.92;;;18.80;83.50;;;;;;5085193;28;20045;-77
2022/05/03 13:40:36;;;;;;;6.25;3.90;;;18.80;82.20;;;;;;5069306;28;20048;-78
2022/05/03 13:43:09;;;;;;;11.00;4.05;;;19.10;82.70;;;;;;5082984;28;20045;-77
2022/05/03 13:45:38;;;;;;;4.55;2.97;;;18.90;82.60;;;;;;5082388;28;20171;-77
2022/05/03 13:48:07;;;;;;;6.07;4.50;;;18.90;82.70;;;;;;5069307;28;20113;-77
2022/05/03 13:50:59;;;;;;;7.72;3.55;;;18.90;82.70;;;;;;5066869;28;20466;-78
2022/05/03 13:53:52;;;;;;;5.53;3.55;;;18.80;82.50;;;;;;5068020;28;20136;-78
2022/05/03 13:56:28;;;;;;;5.53;3.20;;;18.70;82.60;;;;;;5067267;28;20052;-78
2022/05/03 13:59:04;;;;;;;6.15;3.83;;;18.60;82.50;;;;;;5066875;28;20036;-77
2022/05/03 14:01:46;;;;;;;5.22;3.45;;;18.60;82.70;;;;;;5066449;28;20071;-77
2022/05/03 14:04:14;;;;;;;6.80;3.67;;;18.60;82.60;;;;;;5067946;28;20047;-77
2022/05/03 14:06:41;;;;;;;5.13;2.97;;;18.50;82.70;;;;;;5065147;28;20165;-78
2022/05/03 14:09:10;;;;;;;11.15;3.95;;;18.50;82.90;;;;;;5066521;28;20037;-77
2022/05/03 14:11:41;;;;;;;8.27;3.28;;;18.50;83.00;;;;;;5068738;28;20048;-77
2022/05/03 14:14:12;;;;;;;7.70;3.77;;;18.40;83.00;;;;;;5082715;28;20127;-78
2022/05/03 14:16:40;;;;;;;6.78;3.90;;;18.40;83.00;;;;;;5067141;28;20165;-77
2022/05/03 14:19:10;;;;;;;5.60;4.03;;;18.20;83.00;;;;;;5068498;28;20026;-77
2022/05/03 14:21:40;;;;;;;5.60;3.00;;;18.30;83.10;;;;;;5069027;28;20094;-78
2022/05/03 14:24:11;;;;;;;5.65;3.33;;;18.20;82.90;;;;;;5068440;28;20053;-77
2022/05/03 14:26:40;;;;;;;7.20;3.17;;;18.10;82.90;;;;;;5050208;28;20494;-77
2022/05/03 14:29:12;;;;;;;6.72;2.97;;;18.00;83.00;;;;;;5067056;28;20033;-77
2022/05/03 14:31:50;;;;;;;;;;;18.10;83.00;;;;;;5063031;28;20048;-78
2022/05/03 14:34:21;;;;;;;5.25;2.80;;;18.00;82.90;;;;;;5051930;28;19924;-77
2022/05/03 14:36:53;;;;;;;5.15;2.95;;;18.00;83.10;;;;;;5083013;28;20064;-77
2022/05/03 14:39:19;;;;;;;3.45;2.75;;;17.90;83.10;;;;;;5068826;28;20098;-77
2022/05/03 14:41:45;;;;;;;4.10;2.30;;;17.90;83.10;;;;;;5051286;28;20049;-77
2022/05/03 14:44:19;;;;;;;7.82;4.28;;;17.90;83.20;;;;;;5051782;28;20049;-77
2022/05/03 14:47:00;;;;;;;4.30;2.83;;;17.90;83.20;;;;;;5081237;28;20037;-77
2022/05/03 14:49:35;;;;;;;5.22;3.67;;;17.90;83.30;;;;;;5065462;28;20127;-78
2022/05/03 14:52:11;;;;;;;6.00;2.55;;;17.90;83.30;;;;;;5066294;28;20048;-78
2022/05/03 14:54:46;;;;;;;4.50;2.58;;;17.90;83.40;;;;;;5082596;28;20053;-77
2022/05/03 15:03:07;;;;;;;4.30;2.70;;;18.00;83.40;;;;;;5067824;28;20044;-78
2022/05/03 15:05:47;;;;;;;3.45;2.50;;;18.40;83.60;;;;;;5066360;28;20037;-77
2022/05/03 15:08:16;;;;;;;3.97;2.70;;;18.10;83.50;;;;;;5063166;28;20048;-77
2022/05/03 15:10:53;;;;;;;4.43;2.60;;;18.20;83.50;;;;;;5064208;28;20040;-77
2022/05/03 15:13:22;;;;;;;4.00;2.38;;;18.20;83.10;;;;;;5079038;28;20746;-77
2022/05/03 15:15:59;;;;;;;5.82;2.42;;;18.30;83.30;;;;;;5050075;28;20076;-78
2022/05/03 15:18:34;;;;;;;5.22;2.78;;;18.30;83.20;;;;;;5067203;28;20589;-78
2022/05/03 15:21:00;;;;;;;4.40;2.75;;;18.50;83.40;;;;;;5065698;28;20052;-78
2022/05/03 15:26:30;;;;;;;5.15;2.90;;;18.60;83.10;;;;;;5067744;28;20049;-77
2022/05/03 15:29:02;;;;;;;3.97;2.65;;;18.50;83.10;;;;;;5066952;28;20055;-76
2022/05/03 15:31:31;;;;;;;4.97;3.10;;;18.60;83.30;;;;;;5066968;28;20049;-77
2022/05/03 15:34:15;;;;;;;5.57;2.88;;;18.60;83.20;;;;;;5065259;28;20044;-76
2022/05/03 15:36:44;;;;;;;5.53;2.25;;;18.70;83.50;;;;;;5065424;28;20115;-76
2022/05/03 15:39:10;;;;;;;3.63;2.25;;;18.60;83.40;;;;;;5066089;28;20043;-76
2022/05/03 15:41:43;;;;;;;7.18;2.45;;;18.60;83.50;;;;;;5066111;28;20474;-76
2022/05/03 15:44:13;;;;;;;9.63;2.78;;;18.60;83.40;;;;;;5065903;28;20536;-76
2022/05/03 15:46:41;;;;;;;3.25;2.20;;;18.60;83.40;;;;;;5065051;28;20176;-76
2022/05/03 15:49:17;;;;;;;4.13;2.22;;;18.60;83.50;;;;;;5050426;28;20541;-76
2022/05/03 15:51:52;;;;;;;3.38;2.00;;;18.60;83.50;;;;;;5068008;28;20128;-76
2022/05/03 15:54:19;;;;;;;5.40;2.28;;;18.50;83.50;;;;;;5067120;28;20659;-76
2022/05/03 15:56:48;;;;;;;4.45;2.33;;;18.40;82.90;;;;;;5065812;28;20041;-76
2022/05/03 15:59:16;;;;;;;2.83;1.88;;;18.40;83.60;;;;;;5050885;28;20049;-76
2022/05/03 16:01:59;;;;;;;2.83;1.88;;;18.50;83.80;;;;;;5066759;28;20033;-76
2022/05/03 16:04:37;;;;;;;3.08;2.00;;;18.50;83.90;;;;;;5083602;28;20168;-76
2022/05/03 16:07:12;;;;;;;4.05;2.00;;;18.60;84.00;;;;;;5082264;28;20385;-76
2022/05/03 16:09:50;;;;;;;3.22;2.05;;;18.50;84.00;;;;;;5082293;28;20049;-76
2022/05/03 16:12:24;;;;;;;5.35;2.67;;;18.50;84.00;;;;;;5066983;28;20909;-76
2022/05/03 16:14:54;;;;;;;3.50;2.20;;;18.80;84.20;;;;;;5066965;28;20979;-76
2022/05/03 16:17:38;;;;;;;5.30;2.47;;;18.40;83.90;;;;;;5080443;28;20523;-76
2022/05/03 16:20:16;;;;;;;2.92;2.25;;;18.80;84.20;;;;;;5066807;28;20921;-76
2022/05/03 16:22:48;;;;;;;4.22;2.15;;;18.80;84.30;;;;;;5050112;28;20139;-76
2022/05/03 16:25:16;;;;;;;;;;;18.70;84.10;;;;;;5083511;28;20045;-76
2022/05/03 16:27:48;;;;;;;2.92;1.58;;;18.60;84.10;;;;;;5064805;28;19928;-76
2022/05/03 16:30:14;;;;;;;3.38;1.98;;;18.30;84.10;;;;;;5083272;28;20041;-75
2022/05/03 16:32:53;;;;;;;2.67;1.90;;;18.40;84.20;;;;;;5061136;28;20053;-76
2022/05/03 16:35:23;;;;;;;2.58;1.50;;;18.30;84.10;;;;;;5045989;28;20045;-76
2022/05/03 16:43:26;;;;;;;3.22;1.98;;;18.40;84.50;;;;;;5050048;28;20102;-76
2022/05/03 16:45:57;;;;;;;5.53;1.92;;;18.50;84.60;;;;;;5046817;28;20072;-76